createdAt,value
2018-11-11T00:00:31.433Z,98132.70
2018-11-11T00:02:58.884Z,98139.64
2018-11-11T00:05:26.368Z,98155.02
2018-11-11T00:07:53.573Z,98143.09
2018-11-11T00:10:20.899Z,98142.47
2018-11-11T00:12:48.192Z,98145.03
2018-11-11T00:15:16.705Z,98150.46
2018-11-11T00:17:44.971Z,98142.83
2018-11-11T00:20:12.686Z,98130.45
2018-11-11T00:22:40.419Z,98129.03
2018-11-11T00:25:07.710Z,98113.27
2018-11-11T00:27:35.769Z,98133.55
2018-11-11T00:30:03.979Z,98132.70
2018-11-11T00:32:31.674Z,98126.56
2018-11-11T00:34:59.073Z,98135.48
2018-11-11T00:37:26.302Z,98139.69
2018-11-11T00:39:53.531Z,98133.19
2018-11-11T00:42:20.937Z,98147.29
2018-11-11T00:44:48.252Z,98161.34
2018-11-11T00:47:15.740Z,98161.52
2018-11-11T00:49:43.109Z,98164.13
2018-11-11T00:52:10.370Z,98160.58
2018-11-11T00:54:37.909Z,98169.28
2018-11-11T00:57:05.982Z,98160.97
2018-11-11T00:59:33.190Z,98167.50
2018-11-11T01:02:00.530Z,98170.08
2018-11-11T01:04:27.786Z,98180.06
2018-11-11T01:06:55.005Z,98184.23
2018-11-11T01:09:22.197Z,98183.91
2018-11-11T01:11:49.514Z,98191.55
2018-11-11T01:14:16.757Z,98186.66
2018-11-11T01:16:43.978Z,98174.64
2018-11-11T01:19:11.217Z,98178.00
2018-11-11T01:21:38.420Z,98168.80
2018-11-11T01:24:05.662Z,98177.34
2018-11-11T01:26:33.169Z,98181.57
2018-11-11T01:29:00.426Z,98167.88
2018-11-11T01:31:27.579Z,98186.13
2018-11-11T01:33:55.346Z,98181.05
2018-11-11T01:36:22.535Z,98190.41
2018-11-11T01:38:49.809Z,98203.91
2018-11-11T01:41:17.148Z,98201.46
2018-11-11T01:43:44.441Z,98198.69
2018-11-11T01:46:11.640Z,98046.58
2018-11-11T01:48:39.414Z,98202.03
2018-11-11T01:51:06.978Z,98194.21
2018-11-11T01:53:34.428Z,98206.69
2018-11-11T01:56:01.794Z,98176.17
2018-11-11T01:58:28.979Z,98176.27
2018-11-11T02:00:56.263Z,98169.95
2018-11-11T02:03:23.540Z,98169.59
2018-11-11T02:05:50.792Z,98177.02
2018-11-11T02:08:18.126Z,98167.70
2018-11-11T02:10:45.501Z,98173.00
2018-11-11T02:13:13.002Z,98160.94
2018-11-11T02:15:40.633Z,98171.06
2018-11-11T02:18:07.846Z,98160.95
2018-11-11T02:20:35.407Z,98161.06
2018-11-11T02:23:03.005Z,98164.30
2018-11-11T02:25:30.235Z,98162.39
2018-11-11T02:27:57.580Z,98163.46
2018-11-11T02:30:24.719Z,98164.34
2018-11-11T02:32:51.909Z,98159.39
2018-11-11T02:35:19.134Z,98165.88
2018-11-11T02:37:46.389Z,98158.81
2018-11-11T02:40:14.887Z,98166.85
2018-11-11T02:42:42.390Z,98162.92
2018-11-11T02:45:10.829Z,98164.02
2018-11-11T02:47:38.054Z,98160.05
2018-11-11T02:50:06.782Z,98163.76
2018-11-11T02:52:34.203Z,98154.61
2018-11-11T02:55:01.384Z,98157.52
2018-11-11T02:57:28.758Z,98164.64
2018-11-11T02:59:56.071Z,98173.44
2018-11-11T03:02:23.340Z,98159.58
2018-11-11T03:04:50.620Z,98163.81
2018-11-11T03:07:17.849Z,98160.45
2018-11-11T03:09:45.090Z,98157.76
2018-11-11T03:12:12.356Z,98155.27
2018-11-11T03:14:39.585Z,98151.25
2018-11-11T03:17:06.862Z,98153.95
2018-11-11T03:19:34.034Z,98150.34
2018-11-11T03:22:01.777Z,98150.46
2018-11-11T03:24:29.142Z,98151.00
2018-11-11T03:26:56.399Z,98152.22
2018-11-11T03:29:23.739Z,98137.51
2018-11-11T03:31:51.101Z,98130.53
2018-11-11T03:34:18.265Z,98127.19
2018-11-11T03:36:45.529Z,98150.77
2018-11-11T03:39:12.723Z,98147.51
2018-11-11T03:41:40.053Z,98144.46
2018-11-11T03:44:08.149Z,98153.59
2018-11-11T03:46:35.555Z,98151.92
2018-11-11T03:49:02.846Z,98146.31
2018-11-11T03:51:30.208Z,98138.00
2018-11-11T03:53:57.519Z,98130.72
2018-11-11T03:56:24.829Z,98129.97
2018-11-11T03:58:53.389Z,98122.81
2018-11-11T04:01:20.581Z,98130.46
2018-11-11T04:03:47.759Z,98128.16
2018-11-11T04:06:14.978Z,98127.58
2018-11-11T04:08:42.299Z,98127.09
2018-11-11T04:11:09.550Z,98126.48
2018-11-11T04:13:36.801Z,98132.35
2018-11-11T04:16:04.156Z,98137.39
2018-11-11T04:18:31.415Z,98140.00
2018-11-11T04:20:58.710Z,98143.44
2018-11-11T04:23:26.101Z,98146.79
2018-11-11T04:25:53.287Z,98162.00
2018-11-11T04:28:20.639Z,98166.20
2018-11-11T04:30:47.842Z,98162.44
2018-11-11T04:33:15.338Z,98162.39
2018-11-11T04:35:42.596Z,98158.06
2018-11-11T04:38:09.898Z,98160.66
2018-11-11T04:40:37.131Z,98168.52
2018-11-11T04:43:04.810Z,98164.64
2018-11-11T04:45:32.077Z,98161.90
2018-11-11T04:47:59.387Z,98166.94
2018-11-11T04:50:27.446Z,98169.27
2018-11-11T04:52:54.712Z,98171.84
2018-11-11T04:55:21.879Z,98178.68
2018-11-11T04:57:56.013Z,98182.40
2018-11-11T05:00:23.208Z,98195.61
2018-11-11T05:02:50.354Z,98191.44
2018-11-11T05:05:17.503Z,98195.99
2018-11-11T05:07:44.750Z,98203.25
2018-11-11T05:10:12.424Z,98208.02
2018-11-11T05:12:39.637Z,98209.46
2018-11-11T05:15:08.001Z,98221.39
2018-11-11T05:17:35.361Z,98218.84
2018-11-11T05:20:02.666Z,98226.04
2018-11-11T05:22:29.974Z,98231.08
2018-11-11T05:24:57.218Z,98234.33
2018-11-11T05:27:24.378Z,98242.81
2018-11-11T05:29:51.638Z,98258.86
2018-11-11T05:32:18.835Z,98268.45
2018-11-11T05:34:46.245Z,98268.67
2018-11-11T05:37:13.535Z,98268.25
2018-11-11T05:39:40.773Z,98280.74
2018-11-11T05:42:07.954Z,98283.83
2018-11-11T05:44:35.215Z,98268.31
2018-11-11T05:47:02.535Z,98278.64
2018-11-11T05:49:29.864Z,98278.34
2018-11-11T05:51:57.070Z,98290.33
2018-11-11T05:54:24.318Z,98284.20
2018-11-11T05:56:51.564Z,98278.52
2018-11-11T05:59:18.769Z,98282.82
2018-11-11T06:01:46.045Z,98264.05
2018-11-11T06:04:13.423Z,98270.28
2018-11-11T06:06:40.671Z,98264.69
2018-11-11T06:09:08.728Z,98262.53
2018-11-11T06:11:36.083Z,98250.75
2018-11-11T06:14:03.436Z,98246.47
2018-11-11T06:16:30.701Z,98233.70
2018-11-11T06:18:57.948Z,98234.63
2018-11-11T06:21:25.114Z,98228.34
2018-11-11T06:23:52.302Z,98234.13
2018-11-11T06:26:19.507Z,98233.30
2018-11-11T06:28:46.820Z,98243.11
2018-11-11T06:31:14.030Z,98242.91
2018-11-11T06:33:41.232Z,98254.42
2018-11-11T06:36:08.478Z,98271.83
2018-11-11T06:38:35.746Z,98280.23
2018-11-11T06:41:02.969Z,98276.35
2018-11-11T06:43:30.127Z,98279.30
2018-11-11T06:45:57.281Z,98266.19
2018-11-11T06:48:24.551Z,98266.13
2018-11-11T06:50:51.876Z,98273.33
2018-11-11T06:53:19.338Z,98270.72
2018-11-11T06:55:47.446Z,98281.59
2018-11-11T06:58:14.852Z,98282.69
2018-11-11T07:00:41.984Z,98286.89
2018-11-11T07:03:20.741Z,98289.47
2018-11-11T07:05:48.007Z,98295.36
2018-11-11T07:08:15.245Z,98294.88
2018-11-11T07:10:42.433Z,98295.91
2018-11-11T07:13:09.602Z,98296.17
2018-11-11T07:15:36.911Z,98285.97
2018-11-11T07:18:05.026Z,98291.80
2018-11-11T07:20:32.202Z,98287.77
2018-11-11T07:22:59.452Z,98300.20
2018-11-11T07:25:26.766Z,98296.38
2018-11-11T07:27:55.008Z,98294.27
2018-11-11T07:30:22.193Z,98303.05
2018-11-11T07:32:49.516Z,98304.27
2018-11-11T07:35:16.748Z,98326.73
2018-11-11T07:37:43.998Z,98341.02
2018-11-11T07:40:13.240Z,98349.09
2018-11-11T07:42:40.787Z,98341.35
2018-11-11T07:45:08.398Z,98351.91
2018-11-11T07:47:35.791Z,98354.30
2018-11-11T07:50:03.409Z,98371.53
2018-11-11T07:52:30.722Z,98366.97
2018-11-11T07:54:57.852Z,98377.47
2018-11-11T07:57:25.093Z,98372.48
2018-11-11T07:59:52.346Z,98385.59
2018-11-11T08:02:19.641Z,98378.03
2018-11-11T08:04:46.854Z,98383.06
2018-11-11T08:07:14.107Z,98385.89
2018-11-11T08:09:41.258Z,98388.72
2018-11-11T08:12:08.656Z,98390.36
2018-11-11T08:14:35.957Z,98388.45
2018-11-11T08:17:03.291Z,98387.89
2018-11-11T08:19:30.496Z,98386.04
2018-11-11T08:21:57.722Z,98387.86
2018-11-11T08:24:24.899Z,98385.38
2018-11-11T08:26:52.392Z,98386.12
2018-11-11T08:31:57.805Z,98392.25
2018-11-11T08:34:25.149Z,98394.11
2018-11-11T08:36:52.394Z,98400.17
2018-11-11T08:39:19.607Z,98399.41
2018-11-11T08:41:47.001Z,98394.28
2018-11-11T08:44:14.245Z,98392.69
2018-11-11T08:46:43.612Z,98398.08
2018-11-11T08:49:11.945Z,98400.83
2018-11-11T08:51:39.199Z,98412.56
2018-11-11T08:54:06.566Z,98405.23
2018-11-11T08:56:33.834Z,98406.00
2018-11-11T08:59:01.183Z,98408.29
2018-11-11T09:01:28.430Z,98404.08
2018-11-11T09:03:55.734Z,98403.48
2018-11-11T09:06:23.069Z,98406.33
2018-11-11T09:08:51.537Z,98406.56
2018-11-11T09:11:19.167Z,98408.50
2018-11-11T09:13:46.502Z,98417.52
2018-11-11T09:16:13.746Z,98405.32
2018-11-11T09:18:40.942Z,98404.84
2018-11-11T09:21:08.415Z,98405.59
2018-11-11T09:23:35.999Z,98410.30
2018-11-11T09:26:03.317Z,98416.05
2018-11-11T09:28:30.545Z,98410.41
2018-11-11T09:30:57.799Z,98393.36
2018-11-11T09:33:25.398Z,98404.64
2018-11-11T09:35:52.830Z,98405.45
2018-11-11T09:38:20.375Z,98419.88
2018-11-11T09:40:47.664Z,98414.45
2018-11-11T09:43:15.559Z,98420.20
2018-11-11T09:45:42.795Z,98416.14
2018-11-11T09:48:10.132Z,98420.27
2018-11-11T09:50:37.593Z,98414.02
2018-11-11T09:53:05.035Z,98412.45
2018-11-11T09:55:32.444Z,98419.14
2018-11-11T09:58:00.295Z,98415.75
2018-11-11T10:00:27.938Z,98415.00
2018-11-11T10:03:00.363Z,98410.88
2018-11-11T10:05:32.591Z,98406.99
2018-11-11T10:08:06.060Z,98405.58
2018-11-11T10:10:43.265Z,98405.94
2018-11-11T10:13:47.168Z,98404.17
2018-11-11T10:16:50.026Z,98392.91
2018-11-11T10:19:27.522Z,98393.30
2018-11-11T10:22:07.099Z,98397.90
2018-11-11T10:24:48.681Z,98394.98
2018-11-11T10:28:25.905Z,98390.16
2018-11-11T10:31:04.418Z,98403.03
2018-11-11T10:33:38.512Z,98398.73
2018-11-11T10:36:20.692Z,98394.96
2018-11-11T10:39:51.865Z,98399.61
2018-11-11T10:42:24.750Z,98399.02
2018-11-11T10:47:02.486Z,98399.40
2018-11-11T10:49:38.180Z,98402.11
2018-11-11T10:52:05.561Z,98416.16
2018-11-11T10:54:33.008Z,98406.86
2018-11-11T10:57:00.489Z,98405.06
2018-11-11T10:59:28.350Z,98403.17
2018-11-11T11:02:01.148Z,98426.38
2018-11-11T11:04:31.523Z,98397.34
2018-11-11T11:07:07.499Z,98402.39
2018-11-11T11:09:34.757Z,98403.46
2018-11-11T11:12:03.878Z,98397.02
2018-11-11T11:14:31.569Z,98403.72
2018-11-11T11:16:58.744Z,98397.25
2018-11-11T11:19:26.060Z,98396.48
2018-11-11T11:21:53.452Z,98402.45
2018-11-11T11:24:20.690Z,98402.98
2018-11-11T11:26:48.082Z,98404.69
2018-11-11T11:29:15.404Z,98415.86
2018-11-11T11:31:42.764Z,98412.72
2018-11-11T11:34:10.148Z,98411.70
2018-11-11T11:36:37.506Z,98406.28
2018-11-11T11:39:06.902Z,98409.78
2018-11-11T11:41:34.491Z,98413.66
2018-11-11T11:44:01.790Z,98412.33
2018-11-11T11:46:29.127Z,98418.33
2018-11-11T11:48:56.630Z,98427.30
2018-11-11T11:51:23.891Z,98430.00
2018-11-11T11:53:51.230Z,98429.78
2018-11-11T11:56:18.515Z,98446.36
2018-11-11T11:58:46.364Z,98443.89
2018-11-11T12:01:13.812Z,98450.93
2018-11-11T12:03:41.156Z,98459.02
2018-11-11T12:06:08.451Z,98462.95
2018-11-11T12:08:35.743Z,98471.38
2018-11-11T12:11:02.980Z,98465.01
2018-11-11T12:13:30.307Z,98465.73
2018-11-11T12:15:57.959Z,98465.42
2018-11-11T12:18:25.229Z,98463.61
2018-11-11T12:20:52.567Z,98467.80
2018-11-11T12:23:20.068Z,98461.41
2018-11-11T12:25:47.803Z,98462.38
2018-11-11T12:28:16.999Z,98466.66
2018-11-11T12:30:45.364Z,98468.81
2018-11-11T12:33:12.712Z,98466.15
2018-11-11T12:35:40.721Z,98472.78
2018-11-11T12:38:08.225Z,98477.23
2018-11-11T12:40:35.619Z,98478.55
2018-11-11T12:43:02.842Z,98474.56
2018-11-11T12:45:30.152Z,98467.99
2018-11-11T12:47:57.485Z,98466.47
2018-11-11T12:50:24.810Z,98459.45
2018-11-11T12:52:52.292Z,98465.12
2018-11-11T12:55:19.621Z,98460.25
2018-11-11T12:57:46.911Z,98455.59
2018-11-11T13:00:14.979Z,98465.05
2018-11-11T13:02:43.418Z,98457.31
2018-11-11T13:05:11.402Z,98457.22
2018-11-11T13:07:39.129Z,98451.16
2018-11-11T13:10:10.254Z,98452.11
2018-11-11T13:12:41.346Z,98445.42
2018-11-11T13:15:09.893Z,98445.59
2018-11-11T13:17:38.326Z,98437.62
2018-11-11T13:20:09.001Z,98429.52
2018-11-11T13:22:36.473Z,98430.06
2018-11-11T13:25:04.963Z,98422.95
2018-11-11T13:27:32.179Z,98424.02
2018-11-11T13:29:59.456Z,98423.37
2018-11-11T13:32:26.901Z,98429.72
2018-11-11T13:34:54.191Z,98432.06
2018-11-11T13:37:21.516Z,98442.97
2018-11-11T13:39:49.005Z,98441.50
2018-11-11T13:42:16.464Z,98437.08
2018-11-11T13:44:43.997Z,98433.19
2018-11-11T13:47:11.349Z,98431.47
2018-11-11T13:49:38.728Z,98450.02
2018-11-11T13:52:06.105Z,98445.35
2018-11-11T13:54:33.477Z,98444.72
2018-11-11T13:57:00.758Z,98430.69
2018-11-11T13:59:28.043Z,98438.41
2018-11-11T14:01:55.400Z,98439.98
2018-11-11T14:04:22.573Z,98435.78
2018-11-11T14:06:50.248Z,98429.98
2018-11-11T14:09:17.755Z,98425.19
2018-11-11T14:11:45.090Z,98437.02
2018-11-11T14:14:12.348Z,98433.66
2018-11-11T14:16:39.704Z,98429.59
2018-11-11T14:19:07.067Z,98425.02
2018-11-11T14:21:34.392Z,98415.36
2018-11-11T14:24:02.170Z,98431.05
2018-11-11T14:26:29.565Z,98432.59
2018-11-11T14:28:56.803Z,98443.72
2018-11-11T14:31:24.456Z,98444.51
2018-11-11T14:33:51.695Z,98447.03
2018-11-11T14:36:19.068Z,98439.70
2018-11-11T14:38:46.354Z,98427.90
2018-11-11T14:41:13.969Z,98428.18
2018-11-11T14:43:41.271Z,98420.89
2018-11-11T14:46:08.722Z,98415.69
2018-11-11T14:48:36.136Z,98416.55
2018-11-11T14:51:03.792Z,98420.02
2018-11-11T14:53:31.274Z,98422.06
2018-11-11T14:55:58.733Z,98415.60
2018-11-11T14:58:26.253Z,98412.55
2018-11-11T15:00:53.449Z,98412.47
2018-11-11T15:03:20.871Z,98413.17
2018-11-11T15:05:48.441Z,98389.69
2018-11-11T15:08:15.758Z,98419.72
2018-11-11T15:10:43.120Z,98406.66
2018-11-11T15:13:12.149Z,98404.11
2018-11-11T15:15:39.503Z,98414.77
2018-11-11T15:18:07.377Z,98417.50
2018-11-11T15:20:34.881Z,98422.04
2018-11-11T15:23:02.102Z,98428.77
2018-11-11T15:25:30.173Z,98433.77
2018-11-11T15:27:57.407Z,98446.14
2018-11-11T15:30:26.171Z,98450.67
2018-11-11T15:32:54.615Z,98445.28
2018-11-11T15:35:22.007Z,98441.77
2018-11-11T15:37:50.192Z,98441.35
2018-11-11T15:40:24.547Z,98440.65
2018-11-11T15:42:51.883Z,98443.61
2018-11-11T15:45:21.551Z,98448.98
2018-11-11T15:47:48.913Z,98445.78
2018-11-11T15:50:18.991Z,98448.09
2018-11-11T15:52:50.523Z,98451.01
2018-11-11T15:55:18.986Z,98452.89
2018-11-11T15:57:46.397Z,98461.31
2018-11-11T16:00:19.685Z,98458.96
2018-11-11T16:02:47.195Z,98458.00
2018-11-11T16:05:15.367Z,98463.38
2018-11-11T16:07:43.590Z,98475.25
2018-11-11T16:10:12.689Z,98484.14
2018-11-11T16:12:40.277Z,98479.66
2018-11-11T16:15:11.129Z,98486.38
2018-11-11T16:17:38.593Z,98495.80
2018-11-11T16:20:09.452Z,98499.25
2018-11-11T16:22:36.896Z,98500.94
2018-11-11T16:30:03.922Z,98511.34
2018-11-11T16:32:31.178Z,98509.70
2018-11-11T16:34:58.675Z,98509.58
2018-11-11T16:37:25.907Z,98511.59
2018-11-11T16:39:53.218Z,98513.31
2018-11-11T16:42:20.503Z,98514.41
2018-11-11T16:44:47.871Z,98528.37
2018-11-11T16:47:15.545Z,98513.36
2018-11-11T16:49:42.922Z,98506.89
2018-11-11T16:52:10.249Z,98516.55
2018-11-11T16:54:37.625Z,98515.33
2018-11-11T16:57:05.046Z,98512.92
2018-11-11T16:59:32.375Z,98510.34
2018-11-11T17:01:59.739Z,98508.26
2018-11-11T17:04:27.170Z,98517.08
2018-11-11T17:06:54.842Z,98505.24
2018-11-11T17:09:22.172Z,98506.58
2018-11-11T17:11:49.479Z,98508.03
2018-11-11T17:14:16.806Z,98511.05
2018-11-11T17:16:44.194Z,98514.47
2018-11-11T17:19:11.674Z,98515.31
2018-11-11T17:21:39.057Z,98513.58
2018-11-11T17:24:06.301Z,98511.45
2018-11-11T17:26:34.256Z,98499.80
2018-11-11T17:29:01.831Z,98505.29
2018-11-11T17:31:29.892Z,98499.77
2018-11-11T17:33:57.336Z,98503.12
2018-11-11T17:36:24.926Z,98498.34
2018-11-11T17:38:52.269Z,98500.42
2018-11-11T17:41:19.714Z,98491.39
2018-11-11T17:43:47.279Z,98496.03
2018-11-11T17:46:14.896Z,98496.27
2018-11-11T17:48:42.521Z,98497.01
2018-11-11T17:51:10.130Z,98496.88
2018-11-11T17:53:37.559Z,98498.00
2018-11-11T17:56:05.015Z,98504.16
2018-11-11T17:58:32.435Z,98508.39
2018-11-11T18:00:59.849Z,98499.32
2018-11-11T18:03:27.261Z,98504.27
2018-11-11T18:05:54.579Z,98510.61
2018-11-11T18:08:22.155Z,98503.53
2018-11-11T18:10:49.668Z,98500.56
2018-11-11T18:13:17.023Z,98495.25
2018-11-11T18:15:44.378Z,98495.16
2018-11-11T18:18:11.727Z,98497.02
2018-11-11T18:20:39.006Z,98502.16
2018-11-11T18:23:06.246Z,98506.45
2018-11-11T18:25:33.637Z,98512.88
2018-11-11T18:28:01.059Z,98513.58
2018-11-11T18:30:30.380Z,98505.04
2018-11-11T18:32:57.877Z,98517.75
2018-11-11T18:35:25.669Z,98513.50
2018-11-11T18:37:53.504Z,98470.44
2018-11-11T18:40:22.346Z,98507.20
2018-11-11T18:42:49.617Z,98503.88
2018-11-11T18:45:18.402Z,98512.78
2018-11-11T18:47:46.522Z,98505.16
2018-11-11T18:50:17.039Z,98504.59
2018-11-11T18:52:44.349Z,98507.42
2018-11-11T18:55:11.916Z,98514.11
2018-11-11T18:57:39.753Z,98519.42
2018-11-11T19:00:13.753Z,98529.84
2018-11-11T19:02:41.557Z,98497.63
2018-11-11T19:05:10.603Z,98532.45
2018-11-11T19:07:38.462Z,98537.72
2018-11-11T19:10:07.605Z,98520.75
2018-11-11T19:12:35.230Z,98531.56
2018-11-11T19:15:02.837Z,98515.44
2018-11-11T19:17:30.843Z,98523.90
2018-11-11T19:19:58.369Z,98526.73
2018-11-11T19:22:26.022Z,98520.94
2018-11-11T19:24:53.555Z,98525.45
2018-11-11T19:27:21.231Z,98524.73
2018-11-11T19:29:49.224Z,98528.45
2018-11-11T19:32:16.526Z,98532.59
2018-11-11T19:34:43.831Z,98534.12
2018-11-11T19:37:11.365Z,98531.07
2018-11-11T19:39:39.203Z,98531.59
2018-11-11T19:42:06.557Z,98533.45
2018-11-11T19:44:34.099Z,98543.66
2018-11-11T19:47:01.424Z,98544.67
2018-11-11T19:49:28.736Z,98550.62
2018-11-11T19:51:56.506Z,98559.83
2018-11-11T19:54:23.824Z,98561.73
2018-11-11T19:56:51.321Z,98552.20
2018-11-11T19:59:18.605Z,98552.48
2018-11-11T20:01:46.112Z,98548.00
2018-11-11T20:04:13.463Z,98551.98
2018-11-11T20:06:40.795Z,98552.73
2018-11-11T20:09:10.384Z,98557.70
2018-11-11T20:11:39.758Z,98566.70
2018-11-11T20:14:07.596Z,98573.34
2018-11-11T20:16:41.890Z,98587.70
2018-11-11T20:19:09.584Z,98596.92
2018-11-11T20:21:36.930Z,98611.62
2018-11-11T20:24:04.717Z,98609.58
2018-11-11T20:26:32.022Z,98603.47
2018-11-11T20:28:59.361Z,98614.86
2018-11-11T20:31:27.008Z,98616.94
2018-11-11T20:33:54.467Z,98622.48
2018-11-11T20:36:24.214Z,98587.32
2018-11-11T20:38:52.572Z,98613.34
2018-11-11T20:41:20.501Z,98619.72
2018-11-11T20:43:48.216Z,98629.28
2018-11-11T20:46:15.451Z,98631.74
2018-11-11T20:48:42.961Z,98629.34
2018-11-11T20:51:10.331Z,98631.93
2018-11-11T20:53:37.679Z,98623.91
2018-11-11T20:56:05.348Z,98631.89
2018-11-11T20:58:33.104Z,98638.75
2018-11-11T21:01:04.030Z,98646.47
2018-11-11T21:03:32.526Z,98645.67
2018-11-11T21:06:00.557Z,98653.11
2018-11-11T21:08:27.962Z,98661.03
2018-11-11T21:10:56.166Z,98661.35
2018-11-11T21:13:24.080Z,98664.01
2018-11-11T21:15:51.708Z,98672.26
2018-11-11T21:18:20.168Z,98653.59
2018-11-11T21:20:47.720Z,98671.98
2018-11-11T21:23:16.436Z,98674.60
2018-11-11T21:25:44.037Z,98675.89
2018-11-11T21:28:14.335Z,98688.16
2018-11-11T21:30:41.987Z,98681.77
2018-11-11T21:33:09.931Z,98678.86
2018-11-11T21:35:37.279Z,98690.03
2018-11-11T21:38:04.957Z,98696.45
2018-11-11T21:40:32.297Z,98701.89
2018-11-11T21:42:59.978Z,98706.56
2018-11-11T21:45:28.107Z,98702.95
2018-11-11T21:47:55.486Z,98704.28
2018-11-11T21:50:24.373Z,98705.08
2018-11-11T21:53:01.094Z,98705.61
2018-11-11T21:55:28.698Z,98703.52
2018-11-11T21:57:57.066Z,98710.73
2018-11-11T22:00:24.292Z,98713.13
2018-11-11T22:02:51.580Z,98725.92
2018-11-11T22:05:19.119Z,98731.20
2018-11-11T22:07:46.290Z,98724.29
2018-11-11T22:10:14.650Z,98723.76
2018-11-11T22:12:42.638Z,98710.77
2018-11-11T22:15:11.746Z,98707.62
2018-11-11T22:17:40.102Z,98707.62
2018-11-11T22:20:08.231Z,98712.14
2018-11-11T22:22:36.345Z,98709.52
2018-11-11T22:25:04.626Z,98715.36
2018-11-11T22:27:32.101Z,98720.48
2018-11-11T22:29:59.435Z,98714.70
2018-11-11T22:32:26.758Z,98724.84
2018-11-11T22:34:54.453Z,98734.94
2018-11-11T22:37:21.771Z,98741.34
2018-11-11T22:39:49.265Z,98744.56
2018-11-11T22:42:16.556Z,98750.15
2018-11-11T22:44:43.949Z,98747.86
2018-11-11T22:47:11.234Z,98743.37
2018-11-11T22:49:38.715Z,98746.36
2018-11-11T22:52:07.061Z,98744.80
2018-11-11T22:54:34.661Z,98751.70
2018-11-11T22:57:02.757Z,98744.30
2018-11-11T22:59:31.287Z,98746.69
2018-11-11T23:01:58.592Z,98739.25
2018-11-11T23:04:25.783Z,98729.49
2018-11-11T23:06:53.155Z,98727.10
2018-11-11T23:09:20.601Z,98729.26
2018-11-11T23:11:47.879Z,98730.95
2018-11-11T23:14:15.546Z,98723.08
2018-11-11T23:16:43.010Z,98715.27
2018-11-11T23:19:10.483Z,98708.45
2018-11-11T23:21:37.848Z,98495.22
2018-11-11T23:24:05.703Z,98707.05
2018-11-11T23:26:33.192Z,98702.62
2018-11-11T23:29:00.647Z,98706.42
2018-11-11T23:31:28.018Z,98700.41
2018-11-11T23:33:56.122Z,98704.20
2018-11-11T23:36:23.524Z,98707.44
2018-11-11T23:38:51.215Z,98707.24
2018-11-11T23:41:19.771Z,98704.42
2018-11-11T23:43:47.332Z,98704.16
2018-11-11T23:46:15.239Z,98699.88
2018-11-11T23:48:42.616Z,98699.64
2018-11-11T23:51:10.076Z,98705.32
2018-11-11T23:53:37.334Z,98696.25
2018-11-11T23:56:05.892Z,98695.50
2018-11-11T23:58:33.423Z,98692.36
